Time;durP1;ratioP1;P1;durP2;ratioP2;P2;SDS_P1;SDS_P2;PMS_P1;PMS_P2;Temp;Humidity;BMP_temperature;BMP_pressure;BME280_temperature;BME280_humidity;BME280_pressure;Samples;Min_cycle;Max_cycle;Signal;HPM_P1;HPM_P2
2022/08/21 00:00:48;;;;;;;;;;;27.50;44.50;;;;;;5092168;28;19955;-61
2022/08/21 00:03:13;;;;;;;;;;;27.50;44.60;;;;;;5093567;28;19939;-60
2022/08/21 00:05:40;;;;;;;;;;;27.50;44.70;;;;;;5093092;28;19916;-60
2022/08/21 00:08:05;;;;;;;;;;;27.50;44.70;;;;;;5083356;28;19948;-60
2022/08/21 00:10:31;;;;;;;;;;;27.50;44.70;;;;;;5083804;28;19956;-60
2022/08/21 00:12:56;;;;;;;;;;;27.50;44.80;;;;;;5070859;28;19920;-60
2022/08/21 00:15:23;;;;;;;;;;;27.40;45.00;;;;;;5113350;28;20518;-61
2022/08/21 00:17:49;;;;;;;;;;;27.40;45.20;;;;;;5111443;28;20018;-60
2022/08/21 00:20:15;;;;;;;;;;;27.50;45.20;;;;;;5112804;28;20351;-61
2022/08/21 00:22:40;;;;;;;;;;;27.50;44.90;;;;;;5107962;28;19942;-60
2022/08/21 00:25:06;;;;;;;;;;;27.50;45.00;;;;;;5109258;28;19935;-60
2022/08/21 00:27:32;;;;;;;;;;;27.40;45.10;;;;;;5112053;28;20342;-60
2022/08/21 00:29:57;;;;;;;;;;;27.40;45.20;;;;;;5110698;28;19923;-60
2022/08/21 00:32:23;;;;;;;;;;;27.40;45.20;;;;;;5111933;28;19911;-60
2022/08/21 00:34:49;;;;;;;;;;;27.40;45.50;;;;;;5093483;28;19912;-60
2022/08/21 00:37:14;;;;;;;;;;;27.40;45.30;;;;;;5094484;28;20006;-60
2022/08/21 00:39:40;;;;;;;;;;;27.40;45.60;;;;;;5103715;28;19923;-60
2022/08/21 00:42:05;;;;;;;;;;;27.40;45.80;;;;;;5105075;28;20379;-60
2022/08/21 00:44:31;;;;;;;;;;;27.30;45.80;;;;;;5110384;28;19916;-59
2022/08/21 00:46:57;;;;;;;;;;;27.30;45.70;;;;;;5113019;28;19916;-60
2022/08/21 00:49:22;;;;;;;;;;;27.20;46.00;;;;;;5111334;28;19965;-60
2022/08/21 00:51:51;;;;;;;;;;;27.20;46.10;;;;;;5110683;28;19923;-61
2022/08/21 00:54:17;;;;;;;;;;;27.20;46.10;;;;;;5090702;28;19950;-61
2022/08/21 00:56:43;;;;;;;;;;;27.30;46.00;;;;;;5091360;28;20091;-61
2022/08/21 00:59:08;;;;;;;;;;;27.30;46.30;;;;;;5108389;28;20056;-61
2022/08/21 01:01:34;;;;;;;;;;;27.30;46.40;;;;;;5112638;28;19955;-60
2022/08/21 01:03:59;;;;;;;;;;;27.20;46.40;;;;;;5104953;28;19923;-60
2022/08/21 01:06:25;;;;;;;;;;;27.30;46.40;;;;;;5081104;28;20303;-61
2022/08/21 01:08:50;;;;;;;;;;;27.30;46.50;;;;;;5111748;28;20349;-61
2022/08/21 01:11:16;;;;;;;;;;;27.20;46.80;;;;;;5105780;28;20444;-60
2022/08/21 01:13:45;;;;;;;;;;;27.20;47.00;;;;;;5111540;28;20299;-60
2022/08/21 01:16:11;;;;;;;;;;;27.20;47.00;;;;;;5111315;28;19916;-60
2022/08/21 01:18:36;;;;;;;;;;;27.20;47.00;;;;;;5093738;28;20390;-61
2022/08/21 01:21:04;;;;;;;;;;;27.20;47.20;;;;;;5112139;28;20386;-60
2022/08/21 01:23:30;;;;;;;;;;;27.20;47.20;;;;;;5107367;28;19912;-60
2022/08/21 01:25:55;;;;;;;;;;;27.20;47.10;;;;;;5111596;28;20019;-60
2022/08/21 01:28:21;;;;;;;;;;;27.20;47.20;;;;;;5105203;28;19994;-60
2022/08/21 01:30:47;;;;;;;;;;;27.10;47.20;;;;;;5112818;28;19908;-60
2022/08/21 01:33:12;;;;;;;;;;;27.10;47.30;;;;;;5088626;28;19945;-60
2022/08/21 01:35:38;;;;;;;;;;;27.20;47.30;;;;;;5105302;28;20341;-61
2022/08/21 01:38:03;;;;;;;;;;;27.20;47.30;;;;;;5111505;28;19912;-61
2022/08/21 01:40:29;;;;;;;;;;;27.20;47.20;;;;;;5110228;28;19961;-61
2022/08/21 01:42:54;;;;;;;;;;;27.10;47.20;;;;;;5102381;28;20328;-60
2022/08/21 01:45:20;;;;;;;;;;;27.10;47.20;;;;;;5109801;28;19912;-61
2022/08/21 01:47:45;;;;;;;;;;;27.10;47.20;;;;;;5110155;27;20393;-60
2022/08/21 01:50:12;;;;;;;;;;;27.10;47.20;;;;;;5111682;28;19998;-60
2022/08/21 01:52:37;;;;;;;;;;;27.00;47.10;;;;;;5110688;28;19912;-61
2022/08/21 01:55:03;;;;;;;;;;;27.00;47.10;;;;;;5109829;28;19912;-61
2022/08/21 01:57:29;;;;;;;;;;;27.10;47.20;;;;;;5111271;28;19922;-60
2022/08/21 01:59:54;;;;;;;;;;;27.00;47.20;;;;;;5084818;28;20042;-60
2022/08/21 02:02:20;;;;;;;;;;;27.00;47.20;;;;;;5107837;28;19918;-60
2022/08/21 02:04:45;;;;;;;;;;;27.00;47.30;;;;;;5111691;28;19912;-60
2022/08/21 02:07:11;;;;;;;;;;;27.00;47.30;;;;;;5111028;28;19915;-61
2022/08/21 02:09:36;;;;;;;;;;;26.90;47.40;;;;;;5107645;28;19922;-60
2022/08/21 02:12:02;;;;;;;;;;;26.90;47.70;;;;;;5109424;28;20371;-61
2022/08/21 02:14:27;;;;;;;;;;;26.90;47.70;;;;;;5104653;28;20352;-60
2022/08/21 02:16:53;;;;;;;;;;;26.90;47.80;;;;;;5106002;28;19919;-60
2022/08/21 02:19:18;;;;;;;;;;;26.90;47.80;;;;;;5111905;28;19911;-60
2022/08/21 02:21:44;;;;;;;;;;;26.80;47.80;;;;;;5110795;28;20063;-61
2022/08/21 02:24:10;;;;;;;;;;;26.80;47.80;;;;;;5110104;28;20363;-60
2022/08/21 02:26:35;;;;;;;;;;;26.80;47.80;;;;;;5110551;28;19912;-60
2022/08/21 02:29:01;;;;;;;;;;;26.80;47.90;;;;;;5093780;28;20328;-60
2022/08/21 02:31:26;;;;;;;;;;;26.80;47.90;;;;;;5104877;28;19915;-60
2022/08/21 02:33:52;;;;;;;;;;;26.80;47.80;;;;;;5109633;28;20401;-60
2022/08/21 02:36:17;;;;;;;;;;;26.80;47.70;;;;;;5110381;28;20328;-60
2022/08/21 02:38:43;;;;;;;;;;;26.80;47.70;;;;;;5111241;28;19915;-60
2022/08/21 02:41:09;;;;;;;;;;;26.80;47.70;;;;;;5110607;28;19973;-60
2022/08/21 02:43:35;;;;;;;;;;;26.70;47.60;;;;;;5111025;28;19915;-60
2022/08/21 02:46:01;;;;;;;;;;;26.70;47.60;;;;;;5110734;28;20371;-60
2022/08/21 02:48:27;;;;;;;;;;;26.70;47.60;;;;;;5085302;28;19951;-60
2022/08/21 02:50:54;;;;;;;;;;;26.70;47.60;;;;;;5109736;28;19912;-60
2022/08/21 02:53:19;;;;;;;;;;;26.70;47.50;;;;;;5110199;28;20364;-60
2022/08/21 02:55:45;;;;;;;;;;;26.70;47.40;;;;;;5109803;28;20020;-60
2022/08/21 02:58:10;;;;;;;;;;;26.80;47.40;;;;;;5108202;28;19973;-61
2022/08/21 03:00:36;;;;;;;;;;;26.80;47.30;;;;;;5085704;28;19918;-60
2022/08/21 03:03:02;;;;;;;;;;;26.70;47.20;;;;;;5109492;28;19977;-60
2022/08/21 03:05:27;;;;;;;;;;;26.80;47.20;;;;;;5086350;28;19927;-60
2022/08/21 03:07:53;;;;;;;;;;;26.80;47.90;;;;;;5110725;28;20371;-60
2022/08/21 03:10:20;;;;;;;;;;;26.70;47.10;;;;;;5109867;28;19912;-60
2022/08/21 03:12:45;;;;;;;;;;;26.80;47.20;;;;;;5108203;28;19965;-61
2022/08/21 03:15:11;;;;;;;;;;;26.70;47.70;;;;;;5091456;28;19916;-60
2022/08/21 03:17:37;;;;;;;;;;;26.70;47.10;;;;;;5095005;28;19916;-60
2022/08/21 03:20:05;;;;;;;;;;;26.70;47.00;;;;;;5085427;28;19920;-61
2022/08/21 03:22:31;;;;;;;;;;;26.70;47.00;;;;;;5075597;28;19966;-62
2022/08/21 03:24:58;;;;;;;;;;;26.70;47.00;;;;;;5092743;28;19924;-60
2022/08/21 03:27:24;;;;;;;;;;;26.60;47.00;;;;;;5076775;28;19943;-60
2022/08/21 03:29:49;;;;;;;;;;;26.60;47.20;;;;;;5091856;28;19978;-60
2022/08/21 03:32:15;;;;;;;;;;;26.60;47.10;;;;;;5093829;28;19912;-60
2022/08/21 03:34:40;;;;;;;;;;;26.60;47.10;;;;;;5074002;28;20291;-61
2022/08/21 03:37:07;;;;;;;;;;;26.60;47.20;;;;;;5088825;28;19962;-61
2022/08/21 03:39:32;;;;;;;;;;;26.60;47.10;;;;;;5084714;28;19909;-60
2022/08/21 03:41:59;;;;;;;;;;;26.60;47.00;;;;;;5090723;28;19916;-60
2022/08/21 03:44:25;;;;;;;;;;;26.60;47.00;;;;;;5088338;28;19916;-60
2022/08/21 03:46:51;;;;;;;;;;;26.60;47.10;;;;;;5093864;28;19919;-60
2022/08/21 03:49:16;;;;;;;;;;;26.60;47.10;;;;;;5092787;28;19912;-60
2022/08/21 03:51:42;;;;;;;;;;;26.60;47.00;;;;;;5068711;28;19918;-61
2022/08/21 03:54:07;;;;;;;;;;;26.60;46.90;;;;;;5092180;28;19959;-60
2022/08/21 03:56:33;;;;;;;;;;;26.60;47.00;;;;;;5091782;28;19935;-60
2022/08/21 03:58:58;;;;;;;;;;;26.60;47.00;;;;;;5093599;28;19916;-61
2022/08/21 04:01:24;;;;;;;;;;;26.60;47.00;;;;;;5093071;28;19920;-61
2022/08/21 04:03:49;;;;;;;;;;;26.60;47.00;;;;;;5093371;28;20429;-60
2022/08/21 04:06:15;;;;;;;;;;;26.50;46.90;;;;;;5092069;28;19924;-60
2022/08/21 04:08:42;;;;;;;;;;;26.50;47.00;;;;;;5087030;28;20404;-61
2022/08/21 04:11:10;;;;;;;;;;;26.60;47.00;;;;;;5091414;28;20379;-60
2022/08/21 04:13:35;;;;;;;;;;;26.50;46.90;;;;;;5092936;28;20309;-60
2022/08/21 04:16:01;;;;;;;;;;;26.50;46.80;;;;;;5090346;28;20316;-61
2022/08/21 04:18:28;;;;;;;;;;;26.50;46.80;;;;;;5093097;28;20293;-60
2022/08/21 04:20:54;;;;;;;;;;;26.50;46.90;;;;;;5074525;28;20032;-60
2022/08/21 04:23:19;;;;;;;;;;;26.50;47.50;;;;;;5088533;28;19951;-60
2022/08/21 04:25:45;;;;;;;;;;;26.50;46.80;;;;;;5091495;28;19998;-60
2022/08/21 04:28:10;;;;;;;;;;;26.50;46.80;;;;;;5072173;28;19912;-60
2022/08/21 04:30:36;;;;;;;;;;;26.50;47.50;;;;;;5091298;28;19908;-60
2022/08/21 04:33:01;;;;;;;;;;;26.50;46.70;;;;;;5093247;28;19908;-60
2022/08/21 04:35:27;;;;;;;;;;;26.50;46.80;;;;;;5071026;28;20338;-60
2022/08/21 04:37:52;;;;;;;;;;;26.50;46.80;;;;;;5091908;28;19912;-60
2022/08/21 04:40:18;;;;;;;;;;;26.50;46.80;;;;;;5085397;28;19962;-60
2022/08/21 04:42:44;;;;;;;;;;;26.50;46.90;;;;;;5092753;28;19916;-60
2022/08/21 04:45:15;;;;;;;;;;;26.50;46.90;;;;;;5093130;28;19920;-60
2022/08/21 04:47:40;;;;;;;;;;;26.40;46.80;;;;;;5091026;28;19963;-60
2022/08/21 04:50:06;;;;;;;;;;;26.40;46.90;;;;;;5091271;28;19954;-60
2022/08/21 04:52:32;;;;;;;;;;;26.40;47.00;;;;;;5092394;28;19946;-60
2022/08/21 04:54:57;;;;;;;;;;;26.40;47.00;;;;;;5086986;28;19920;-61
2022/08/21 04:57:22;;;;;;;;;;;26.40;47.00;;;;;;5090867;28;20006;-60
2022/08/21 04:59:49;;;;;;;;;;;26.40;47.10;;;;;;5090862;28;19916;-60
2022/08/21 05:02:14;;;;;;;;;;;26.30;47.00;;;;;;5090418;28;19947;-60
2022/08/21 05:04:49;;;;;;;;;;;26.30;47.00;;;;;;5073038;28;20324;-60
2022/08/21 05:07:16;;;;;;;;;;;26.30;47.00;;;;;;5090629;28;19944;-60
2022/08/21 05:09:42;;;;;;;;;;;26.30;47.10;;;;;;5090919;28;19912;-60
2022/08/21 05:12:07;;;;;;;;;;;26.20;47.10;;;;;;5085896;28;19961;-60
2022/08/21 05:14:33;;;;;;;;;;;26.30;47.00;;;;;;5106652;28;20002;-60
2022/08/21 05:16:58;;;;;;;;;;;26.30;46.90;;;;;;5111882;28;19916;-60
2022/08/21 05:19:24;;;;;;;;;;;26.20;46.90;;;;;;5112121;28;20368;-60
2022/08/21 05:21:50;;;;;;;;;;;26.20;47.00;;;;;;5110635;28;20007;-60
2022/08/21 05:24:15;;;;;;;;;;;26.20;46.90;;;;;;5110612;28;19916;-60
2022/08/21 05:26:41;;;;;;;;;;;26.20;47.00;;;;;;5111331;28;19908;-60
2022/08/21 05:29:06;;;;;;;;;;;26.20;47.00;;;;;;5086786;28;19912;-60
2022/08/21 05:31:32;;;;;;;;;;;26.20;47.00;;;;;;5111861;28;19998;-60
2022/08/21 05:33:57;;;;;;;;;;;26.20;47.00;;;;;;5091586;28;19916;-60
2022/08/21 05:36:23;;;;;;;;;;;26.20;47.00;;;;;;5094447;28;19908;-60
2022/08/21 05:38:48;;;;;;;;;;;26.20;46.90;;;;;;5107885;28;19996;-60
2022/08/21 05:41:14;;;;;;;;;;;26.20;47.00;;;;;;5110061;28;19919;-60
2022/08/21 05:43:39;;;;;;;;;;;26.10;47.00;;;;;;5106714;28;20279;-60
2022/08/21 05:46:05;;;;;;;;;;;26.10;47.20;;;;;;5110108;28;20385;-60
2022/08/21 05:48:30;;;;;;;;;;;26.00;47.20;;;;;;5110028;28;19916;-60
2022/08/21 05:50:56;;;;;;;;;;;26.00;47.10;;;;;;5110512;28;19922;-60
2022/08/21 05:53:22;;;;;;;;;;;26.00;47.20;;;;;;5092793;28;19916;-60
2022/08/21 05:55:47;;;;;;;;;;;26.00;47.10;;;;;;5110725;28;19912;-60
2022/08/21 05:58:14;;;;;;;;;;;26.00;47.20;;;;;;5110290;28;19912;-60
2022/08/21 06:00:39;;;;;;;;;;;26.00;47.10;;;;;;5105458;28;19969;-60
2022/08/21 06:03:09;;;;;;;;;;;26.00;47.10;;;;;;5074024;28;19912;-60
2022/08/21 06:05:35;;;;;;;;;;;26.00;47.10;;;;;;5108973;28;19961;-60
2022/08/21 06:08:00;;;;;;;;;;;26.00;47.10;;;;;;5111507;28;19990;-60
2022/08/21 06:10:26;;;;;;;;;;;26.00;47.20;;;;;;5110838;28;19912;-60
2022/08/21 06:12:55;;;;;;;;;;;26.00;47.20;;;;;;5107413;28;19956;-60
2022/08/21 06:15:20;;;;;;;;;;;26.00;47.20;;;;;;5109737;28;19923;-60
2022/08/21 06:17:45;;;;;;;;;;;26.00;47.30;;;;;;5105658;28;19912;-60
2022/08/21 06:20:11;;;;;;;;;;;26.00;47.20;;;;;;5088681;28;20324;-60
2022/08/21 06:22:36;;;;;;;;;;;26.00;47.30;;;;;;5112232;28;20314;-61
2022/08/21 06:25:02;;;;;;;;;;;25.90;47.30;;;;;;5109039;28;19920;-60
2022/08/21 06:27:27;;;;;;;;;;;25.90;47.30;;;;;;5111361;28;20067;-60
2022/08/21 06:29:53;;;;;;;;;;;25.90;47.40;;;;;;5099096;28;19923;-60
2022/08/21 06:32:18;;;;;;;;;;;25.90;47.50;;;;;;5101197;28;19927;-60
2022/08/21 06:34:44;;;;;;;;;;;25.90;47.40;;;;;;5109699;28;19920;-60
2022/08/21 06:37:09;;;;;;;;;;;25.90;47.50;;;;;;5091183;28;20014;-60
2022/08/21 06:39:35;;;;;;;;;;;25.90;47.40;;;;;;5109659;28;20372;-60
2022/08/21 06:42:00;;;;;;;;;;;25.90;47.30;;;;;;5110816;28;19919;-60
2022/08/21 06:44:26;;;;;;;;;;;25.80;47.20;;;;;;5110779;28;19915;-60
2022/08/21 06:46:51;;;;;;;;;;;25.80;47.20;;;;;;5110540;28;20264;-60
2022/08/21 06:49:17;;;;;;;;;;;25.80;47.20;;;;;;5107166;28;19964;-61
2022/08/21 06:51:42;;;;;;;;;;;25.80;47.20;;;;;;5114161;28;19995;-60
2022/08/21 06:54:08;;;;;;;;;;;25.80;47.10;;;;;;5114739;28;19911;-60
2022/08/21 06:56:35;;;;;;;;;;;25.80;47.10;;;;;;5114315;28;19916;-60
2022/08/21 06:59:00;;;;;;;;;;;25.70;47.30;;;;;;5114664;28;20012;-60
2022/08/21 07:01:26;;;;;;;;;;;25.70;47.40;;;;;;5108210;28;19950;-60
2022/08/21 07:03:51;;;;;;;;;;;25.70;47.30;;;;;;5108696;28;19920;-61
2022/08/21 07:06:17;;;;;;;;;;;25.70;47.30;;;;;;5112604;28;19916;-61
2022/08/21 07:08:42;;;;;;;;;;;25.70;47.30;;;;;;5114880;28;19908;-60
2022/08/21 07:11:12;;;;;;;;;;;25.70;47.20;;;;;;5113629;28;19915;-60
2022/08/21 07:13:38;;;;;;;;;;;25.80;47.20;;;;;;5103040;28;19977;-60
2022/08/21 07:16:04;;;;;;;;;;;25.80;47.10;;;;;;5093610;28;19915;-60
2022/08/21 07:18:29;;;;;;;;;;;25.80;47.20;;;;;;5093891;28;20272;-60
2022/08/21 07:20:55;;;;;;;;;;;25.70;47.00;;;;;;5069352;28;19944;-61
2022/08/21 07:23:24;;;;;;;;;;;25.70;47.10;;;;;;5092849;28;19968;-60
2022/08/21 07:25:50;;;;;;;;;;;25.70;47.00;;;;;;5092159;28;20257;-60
2022/08/21 07:28:15;;;;;;;;;;;25.70;47.10;;;;;;5083242;28;19919;-60
2022/08/21 07:30:41;;;;;;;;;;;25.70;47.10;;;;;;5094844;28;20366;-60
2022/08/21 07:33:07;;;;;;;;;;;25.70;47.20;;;;;;5093570;28;20322;-60
2022/08/21 07:35:33;;;;;;;;;;;25.70;47.10;;;;;;5085845;28;19942;-60
2022/08/21 07:37:58;;;;;;;;;;;25.70;47.00;;;;;;5087717;28;19920;-60
2022/08/21 07:40:24;;;;;;;;;;;25.70;47.00;;;;;;5089451;28;19915;-60
2022/08/21 07:42:51;;;;;;;;;;;25.60;47.20;;;;;;5094797;28;19919;-60
2022/08/21 07:45:17;;;;;;;;;;;25.60;47.40;;;;;;5093942;28;19913;-60
2022/08/21 07:47:43;;;;;;;;;;;25.70;47.30;;;;;;5093978;28;19916;-60
2022/08/21 07:50:11;;;;;;;;;;;25.70;47.40;;;;;;5087565;28;19916;-60
2022/08/21 07:52:37;;;;;;;;;;;25.70;47.40;;;;;;5088053;28;19912;-60
2022/08/21 07:55:02;;;;;;;;;;;25.60;47.40;;;;;;5091828;28;19916;-60
2022/08/21 07:57:28;;;;;;;;;;;25.70;47.30;;;;;;5093567;28;20384;-60
2022/08/21 07:59:54;;;;;;;;;;;25.60;47.40;;;;;;5094270;28;20404;-60
2022/08/21 08:02:26;;;;;;;;;;;25.60;47.40;;;;;;5092243;28;19961;-60
2022/08/21 08:04:51;;;;;;;;;;;25.60;47.30;;;;;;5093850;28;19923;-60
2022/08/21 08:07:17;;;;;;;;;;;25.70;48.00;;;;;;5090873;28;19912;-60
2022/08/21 08:09:43;;;;;;;;;;;25.70;47.30;;;;;;5088114;28;19933;-60
2022/08/21 08:12:09;;;;;;;;;;;25.70;47.30;;;;;;5090638;28;19916;-60
2022/08/21 08:14:35;;;;;;;;;;;25.80;47.30;;;;;;5110324;28;19924;-60
2022/08/21 08:17:01;;;;;;;;;;;25.80;47.30;;;;;;5114270;28;19908;-60
2022/08/21 08:19:27;;;;;;;;;;;25.80;47.20;;;;;;5113839;28;19996;-60
2022/08/21 08:21:52;;;;;;;;;;;25.80;47.10;;;;;;5091705;28;19947;-60
2022/08/21 08:24:18;;;;;;;;;;;25.80;47.20;;;;;;5107478;28;19919;-60
2022/08/21 08:26:43;;;;;;;;;;;25.70;47.40;;;;;;5108592;28;20080;-60
2022/08/21 08:29:09;;;;;;;;;;;25.80;47.40;;;;;;5111625;28;20264;-60
2022/08/21 08:31:34;;;;;;;;;;;25.80;47.40;;;;;;5113189;27;19923;-60
2022/08/21 08:34:00;;;;;;;;;;;25.80;47.40;;;;;;5113661;28;19912;-60
2022/08/21 08:36:31;;;;;;;;;;;25.90;47.40;;;;;;5113848;28;19994;-60
2022/08/21 08:38:56;;;;;;;;;;;25.90;47.30;;;;;;5110633;28;19915;-60
2022/08/21 08:41:23;;;;;;;;;;;25.80;47.30;;;;;;5106025;28;19912;-61
2022/08/21 08:43:52;;;;;;;;;;;25.80;47.20;;;;;;5107441;28;19912;-60
2022/08/21 08:46:19;;;;;;;;;;;25.80;47.10;;;;;;5104769;28;19922;-60
2022/08/21 08:48:51;;;;;;;;;;;25.80;47.10;;;;;;5108045;28;19988;-61
2022/08/21 08:51:24;;;;;;;;;;;25.80;47.30;;;;;;5109577;28;19947;-60
2022/08/21 08:53:51;;;;;;;;;;;25.80;47.30;;;;;;5091373;28;19977;-60
2022/08/21 08:56:18;;;;;;;;;;;25.80;47.30;;;;;;5105719;28;19919;-61
2022/08/21 08:58:43;;;;;;;;;;;25.80;47.20;;;;;;5095200;28;20417;-60
2022/08/21 09:01:12;;;;;;;;;;;25.80;47.30;;;;;;5089979;28;19919;-60
2022/08/21 09:03:37;;;;;;;;;;;25.90;47.20;;;;;;5085662;28;19980;-60
2022/08/21 09:06:03;;;;;;;;;;;25.90;47.10;;;;;;5111207;28;19916;-60
2022/08/21 09:08:33;;;;;;;;;;;26.00;47.10;;;;;;5112694;28;19917;-60
2022/08/21 09:11:10;;;;;;;;;;;26.00;47.20;;;;;;5092023;28;19912;-60
2022/08/21 09:13:35;;;;;;;;;;;26.00;47.30;;;;;;5091031;28;19930;-60
2022/08/21 09:16:16;;;;;;;;;;;26.10;47.20;;;;;;5112882;28;19908;-60
2022/08/21 09:18:44;;;;;;;;;;;26.10;47.20;;;;;;5109647;28;19912;-60
2022/08/21 09:21:12;;;;;;;;;;;26.10;47.30;;;;;;5107654;27;19944;-60
2022/08/21 09:23:49;;;;;;;;;;;26.10;47.40;;;;;;5110728;28;20394;-59
2022/08/21 09:26:19;;;;;;;;;;;26.10;47.40;;;;;;5094261;28;19916;-59
2022/08/21 09:28:44;;;;;;;;;;;26.10;47.40;;;;;;5107232;28;20435;-59
2022/08/21 09:31:14;;;;;;;;;;;26.10;47.30;;;;;;5112872;28;20003;-60
2022/08/21 09:33:39;;;;;;;;;;;26.10;47.50;;;;;;5091286;28;19923;-60
2022/08/21 09:36:05;;;;;;;;;;;26.20;47.40;;;;;;5108892;28;19923;-60
2022/08/21 09:38:32;;;;;;;;;;;26.20;47.90;;;;;;5112158;28;19911;-60
2022/08/21 09:41:03;;;;;;;;;;;26.20;47.10;;;;;;5109137;28;19952;-60
2022/08/21 09:43:29;;;;;;;;;;;26.30;47.10;;;;;;5106952;28;20296;-60
2022/08/21 09:46:23;;;;;;;;;;;26.30;47.00;;;;;;5106788;28;19973;-60
2022/08/21 09:48:50;;;;;;;;;;;26.30;46.80;;;;;;5085937;28;20380;-59
2022/08/21 09:51:17;;;;;;;;;;;26.30;47.10;;;;;;5112442;28;19964;-60
2022/08/21 09:53:44;;;;;;;;;;;26.30;46.80;;;;;;5110075;28;19919;-60
2022/08/21 09:59:01;;;;;;;;;;;26.30;47.20;;;;;;5086170;28;20334;-60
2022/08/21 10:01:26;;;;;;;;;;;26.30;47.50;;;;;;5091491;28;19967;-63
2022/08/21 10:04:04;;;;;;;;;;;26.30;47.10;;;;;;5110263;27;20287;-62
2022/08/21 10:06:30;;;;;;;;;;;26.40;47.10;;;;;;5093170;28;19919;-62
2022/08/21 10:09:16;;;;;;;;;;;26.40;47.30;;;;;;5111036;28;19914;-62
2022/08/21 10:11:43;;;;;;;;;;;26.30;47.60;;;;;;5110540;28;20360;-61
2022/08/21 10:14:38;;;;;;;;;;;26.30;47.80;;;;;;5092425;28;19924;-61
2022/08/21 10:17:05;;;;;;;;;;;26.30;47.90;;;;;;5021535;28;19910;-61
2022/08/21 10:19:30;;;;;;;;;;;26.40;47.90;;;;;;5093374;28;19904;-61
2022/08/21 10:22:00;;;;;;;;;;;26.40;47.80;;;;;;5110623;28;20318;-61
2022/08/21 10:24:31;;;;;;;;;;;26.30;47.90;;;;;;5082066;28;20533;-61
2022/08/21 10:27:13;;;;;;;;;;;26.40;48.30;;;;;;5085154;28;19923;-61
2022/08/21 10:29:50;;;;;;;;;;;26.40;48.10;;;;;;5109115;28;19916;-61
2022/08/21 10:32:31;;;;;;;;;;;26.40;47.80;;;;;;5093940;28;19908;-61
2022/08/21 10:35:20;;;;;;;;;;;26.40;47.80;;;;;;5091249;28;20017;-62
2022/08/21 10:37:48;;;;;;;;;;;26.40;48.00;;;;;;5097525;28;19955;-61
2022/08/21 10:40:14;;;;;;;;;;;26.40;48.00;;;;;;5075480;28;19957;-61
2022/08/21 10:42:47;;;;;;;;;;;26.40;47.90;;;;;;5102328;28;20313;-61
2022/08/21 10:45:25;;;;;;;;;;;26.40;48.00;;;;;;5105278;28;19923;-61
2022/08/21 10:47:54;;;;;;;;;;;26.40;48.00;;;;;;5081516;28;20359;-61
2022/08/21 10:50:35;;;;;;;;;;;26.40;48.00;;;;;;5076764;28;19918;-62
2022/08/21 10:53:22;;;;;;;;;;;26.50;47.70;;;;;;5105581;28;19912;-61
2022/08/21 10:56:17;;;;;;;;;;;26.50;47.70;;;;;;5092826;28;19912;-61
2022/08/21 10:58:48;;;;;;;;;;;26.50;47.50;;;;;;5085556;28;19908;-61
2022/08/21 11:01:15;;;;;;;;;;;26.50;47.70;;;;;;5087810;28;19916;-61
2022/08/21 11:03:44;;;;;;;;;;;26.50;47.20;;;;;;5110326;28;19930;-61
2022/08/21 11:06:17;;;;;;;;;;;26.50;47.00;;;;;;5092807;28;19973;-61
2022/08/21 11:08:45;;;;;;;;;;;26.50;46.90;;;;;;5086314;28;19908;-61
2022/08/21 11:11:29;;;;;;;;;;;26.50;47.00;;;;;;5088199;28;20439;-61
2022/08/21 11:13:56;;;;;;;;;;;26.40;47.10;;;;;;5106491;28;20307;-61
2022/08/21 11:16:32;;;;;;;;;;;26.40;46.60;;;;;;5093269;28;20360;-61
2022/08/21 11:19:09;;;;;;;;;;;26.40;46.70;;;;;;5092277;28;19941;-61
2022/08/21 11:21:48;;;;;;;;;;;26.40;46.60;;;;;;5092797;28;19919;-61
2022/08/21 11:24:21;;;;;;;;;;;26.50;46.00;;;;;;5084771;28;19944;-61
2022/08/21 11:26:49;;;;;;;;;;;26.50;45.60;;;;;;5108193;28;19943;-61
2022/08/21 11:29:20;;;;;;;;;;;26.50;45.60;;;;;;5072473;28;19955;-61
2022/08/21 11:31:49;;;;;;;;;;;26.50;45.40;;;;;;5092094;28;19983;-61
2022/08/21 11:34:30;;;;;;;;;;;26.50;45.60;;;;;;5092166;28;19989;-61
2022/08/21 11:37:01;;;;;;;;;;;26.50;45.30;;;;;;5110848;28;20642;-61
2022/08/21 11:39:30;;;;;;;;;;;26.60;45.20;;;;;;5108977;28;20261;-61
2022/08/21 11:42:02;;;;;;;;;;;26.50;44.80;;;;;;5109724;28;19962;-61
2022/08/21 11:44:32;;;;;;;;;;;26.60;44.70;;;;;;5095606;28;19915;-61
2022/08/21 11:47:01;;;;;;;;;;;26.60;44.40;;;;;;5114979;28;19924;-61
2022/08/21 11:49:35;;;;;;;;;;;26.50;44.20;;;;;;5103338;28;20325;-61
2022/08/21 11:52:19;;;;;;;;;;;26.60;44.40;;;;;;5109744;28;20364;-61
2022/08/21 11:54:46;;;;;;;;;;;26.60;44.10;;;;;;5099526;28;19912;-61
2022/08/21 11:57:15;;;;;;;;;;;26.60;44.20;;;;;;5112323;28;20038;-61
2022/08/21 11:59:41;;;;;;;;;;;26.70;43.80;;;;;;5110228;28;20010;-61
2022/08/21 12:02:16;;;;;;;;;;;26.70;43.80;;;;;;5093266;28;20349;-61
2022/08/21 12:04:43;;;;;;;;;;;26.70;43.80;;;;;;5093831;28;19972;-61
2022/08/21 12:07:28;;;;;;;;;;;26.70;43.80;;;;;;5096316;28;19907;-61
2022/08/21 12:09:54;;;;;;;;;;;26.60;43.90;;;;;;5084231;28;19908;-61
2022/08/21 12:12:22;;;;;;;;;;;26.70;43.60;;;;;;5113575;27;19919;-61
2022/08/21 12:14:48;;;;;;;;;;;26.70;43.60;;;;;;5109116;28;19932;-61
2022/08/21 12:17:21;;;;;;;;;;;26.70;43.50;;;;;;5113730;28;19912;-61
2022/08/21 12:19:56;;;;;;;;;;;26.70;43.00;;;;;;5100794;28;19907;-61
2022/08/21 12:22:22;;;;;;;;;;;26.80;43.00;;;;;;5086461;28;20386;-61
2022/08/21 12:24:50;;;;;;;;;;;26.80;42.80;;;;;;5090068;28;20028;-61
2022/08/21 12:27:25;;;;;;;;;;;26.80;42.60;;;;;;5093897;28;19950;-61
2022/08/21 12:29:52;;;;;;;;;;;26.80;42.60;;;;;;5107420;28;19951;-61
2022/08/21 12:32:17;;;;;;;;;;;26.80;42.50;;;;;;5082798;28;19964;-61
2022/08/21 12:34:47;;;;;;;;;;;26.90;42.90;;;;;;5104686;28;20418;-61
2022/08/21 12:37:31;;;;;;;;;;;26.90;42.30;;;;;;5088628;28;19919;-61
2022/08/21 12:39:57;;;;;;;;;;;26.80;41.70;;;;;;5093959;28;20315;-61
2022/08/21 12:42:24;;;;;;;;;;;26.80;41.90;;;;;;5113977;28;19933;-61
2022/08/21 12:44:51;;;;;;;;;;;26.80;41.80;;;;;;5095371;28;19965;-61
2022/08/21 12:47:35;;;;;;;;;;;26.70;41.50;;;;;;5093335;27;19966;-61
2022/08/21 12:50:08;;;;;;;;;;;26.70;41.60;;;;;;5109842;28;19955;-61
2022/08/21 12:52:35;;;;;;;;;;;26.80;42.00;;;;;;5092771;28;19918;-61
2022/08/21 12:55:01;;;;;;;;;;;26.80;41.90;;;;;;5107462;28;19916;-61
2022/08/21 12:57:27;;;;;;;;;;;26.70;42.20;;;;;;5113366;28;19908;-61
2022/08/21 13:00:00;;;;;;;;;;;26.70;42.50;;;;;;5113195;28;19907;-61
2022/08/21 13:02:27;;;;;;;;;;;26.70;42.40;;;;;;5111842;28;19926;-61
2022/08/21 13:04:54;;;;;;;;;;;26.70;42.60;;;;;;5094762;28;19915;-62
2022/08/21 13:07:24;;;;;;;;;;;26.80;42.40;;;;;;5095228;28;20321;-62
2022/08/21 13:09:51;;;;;;;;;;;26.80;42.50;;;;;;5084920;28;20056;-62
2022/08/21 13:12:17;;;;;;;;;;;26.80;42.20;;;;;;5087230;28;19958;-62
2022/08/21 13:14:43;;;;;;;;;;;26.80;41.80;;;;;;5109749;28;19967;-62
2022/08/21 13:17:09;;;;;;;;;;;26.90;42.30;;;;;;5112774;28;19911;-62
2022/08/21 13:19:34;;;;;;;;;;;26.90;42.20;;;;;;5094620;28;19918;-62
2022/08/21 13:22:00;;;;;;;;;;;26.90;41.60;;;;;;5094867;28;19915;-62
2022/08/21 13:24:27;;;;;;;;;;;26.90;42.00;;;;;;5093773;28;20003;-62
2022/08/21 13:26:52;;;;;;;;;;;27.00;41.90;;;;;;5111865;28;19912;-62
2022/08/21 13:29:19;;;;;;;;;;;27.00;41.60;;;;;;5106532;28;20249;-62
2022/08/21 13:31:52;;;;;;;;;;;27.00;41.30;;;;;;5113007;28;19943;-62
2022/08/21 13:34:18;;;;;;;;;;;27.10;41.40;;;;;;5119270;28;19912;-62
2022/08/21 13:36:44;;;;;;;;;;;27.10;41.30;;;;;;5092670;28;19957;-62
2022/08/21 13:39:10;;;;;;;;;;;27.10;41.10;;;;;;5106758;28;20401;-62
2022/08/21 13:41:37;;;;;;;;;;;27.10;41.40;;;;;;5094434;28;19912;-62
2022/08/21 13:44:13;;;;;;;;;;;27.10;41.30;;;;;;5106180;28;20358;-62
2022/08/21 13:46:38;;;;;;;;;;;27.10;41.30;;;;;;5112070;28;19912;-62
2022/08/21 13:49:04;;;;;;;;;;;27.10;41.10;;;;;;5110613;28;20026;-62
2022/08/21 13:51:31;;;;;;;;;;;27.20;41.00;;;;;;5112489;28;19916;-62
2022/08/21 13:53:56;;;;;;;;;;;27.20;41.00;;;;;;5110640;28;19908;-62
2022/08/21 13:56:26;;;;;;;;;;;27.20;41.10;;;;;;5110389;28;20363;-61
2022/08/21 13:58:52;;;;;;;;;;;27.20;40.90;;;;;;5109693;28;19965;-61
2022/08/21 14:01:22;;;;;;;;;;;27.20;40.80;;;;;;5088759;28;19915;-62
2022/08/21 14:03:48;;;;;;;;;;;27.20;41.00;;;;;;5091808;28;20010;-62
2022/08/21 14:06:14;;;;;;;;;;;27.20;41.00;;;;;;5093679;28;20009;-62
2022/08/21 14:08:41;;;;;;;;;;;27.30;40.70;;;;;;5092381;28;20018;-62
2022/08/21 14:11:09;;;;;;;;;;;27.20;40.60;;;;;;5110513;28;20007;-62
2022/08/21 14:13:41;;;;;;;;;;;27.30;40.50;;;;;;5085654;28;19954;-61
2022/08/21 14:16:23;;;;;;;;;;;27.30;40.50;;;;;;5087260;28;19938;-62
2022/08/21 14:19:01;;;;;;;;;;;27.30;40.30;;;;;;5090089;28;19937;-62
2022/08/21 14:21:36;;;;;;;;;;;27.30;40.20;;;;;;5091642;28;19922;-62